sensor_id;sensor_type;location;lat;lon;timestamp;P1;durP1;ratioP1;P2;durP2;ratioP2
9334;SDS011;4706;41.844;26.082;2023-07-24T00:01:28;11.98;;;7.80;;
9334;SDS011;4706;41.844;26.082;2023-07-24T00:03:54;12.57;;;8.20;;
9334;SDS011;4706;41.844;26.082;2023-07-24T00:06:22;7.45;;;6.75;;
9334;SDS011;4706;41.844;26.082;2023-07-24T00:08:48;8.40;;;6.55;;
9334;SDS011;4706;41.844;26.082;2023-07-24T00:11:13;8.70;;;6.60;;
9334;SDS011;4706;41.844;26.082;2023-07-24T00:13:39;8.35;;;6.65;;
9334;SDS011;4706;41.844;26.082;2023-07-24T00:16:07;7.30;;;6.40;;
9334;SDS011;4706;41.844;26.082;2023-07-24T00:18:33;7.80;;;6.28;;
9334;SDS011;4706;41.844;26.082;2023-07-24T00:20:59;9.90;;;7.20;;
9334;SDS011;4706;41.844;26.082;2023-07-24T00:23:25;7.80;;;6.97;;
9334;SDS011;4706;41.844;26.082;2023-07-24T00:25:50;9.45;;;6.22;;
9334;SDS011;4706;41.844;26.082;2023-07-24T00:28:16;8.40;;;6.88;;
9334;SDS011;4706;41.844;26.082;2023-07-24T00:30:42;8.88;;;7.25;;
9334;SDS011;4706;41.844;26.082;2023-07-24T00:33:07;7.07;;;6.38;;
9334;SDS011;4706;41.844;26.082;2023-07-24T00:35:33;6.97;;;6.28;;
9334;SDS011;4706;41.844;26.082;2023-07-24T00:37:58;8.90;;;6.57;;
9334;SDS011;4706;41.844;26.082;2023-07-24T00:40:24;6.90;;;6.22;;
9334;SDS011;4706;41.844;26.082;2023-07-24T00:42:49;6.88;;;6.28;;
9334;SDS011;4706;41.844;26.082;2023-07-24T00:45:15;8.02;;;6.55;;
9334;SDS011;4706;41.844;26.082;2023-07-24T00:47:42;8.27;;;6.38;;
9334;SDS011;4706;41.844;26.082;2023-07-24T00:50:08;8.02;;;6.57;;
9334;SDS011;4706;41.844;26.082;2023-07-24T00:52:35;8.18;;;6.38;;
9334;SDS011;4706;41.844;26.082;2023-07-24T00:55:02;7.15;;;6.50;;
9334;SDS011;4706;41.844;26.082;2023-07-24T00:57:28;6.93;;;6.32;;
9334;SDS011;4706;41.844;26.082;2023-07-24T00:59:53;7.93;;;6.95;;
9334;SDS011;4706;41.844;26.082;2023-07-24T01:02:19;6.90;;;6.30;;
9334;SDS011;4706;41.844;26.082;2023-07-24T01:04:45;10.70;;;6.35;;
9334;SDS011;4706;41.844;26.082;2023-07-24T01:07:11;9.60;;;6.30;;
9334;SDS011;4706;41.844;26.082;2023-07-24T01:09:37;8.77;;;6.80;;
9334;SDS011;4706;41.844;26.082;2023-07-24T01:12:04;7.47;;;6.78;;
9334;SDS011;4706;41.844;26.082;2023-07-24T01:14:46;7.45;;;6.15;;
9334;SDS011;4706;41.844;26.082;2023-07-24T01:17:15;11.70;;;5.97;;
9334;SDS011;4706;41.844;26.082;2023-07-24T01:19:49;6.25;;;5.65;;
9334;SDS011;4706;41.844;26.082;2023-07-24T01:25:00;8.15;;;6.05;;
9334;SDS011;4706;41.844;26.082;2023-07-24T01:27:26;6.93;;;6.22;;
9334;SDS011;4706;41.844;26.082;2023-07-24T01:29:52;8.02;;;5.75;;
9334;SDS011;4706;41.844;26.082;2023-07-24T01:32:21;10.48;;;6.43;;
9334;SDS011;4706;41.844;26.082;2023-07-24T01:34:47;6.15;;;5.53;;
9334;SDS011;4706;41.844;26.082;2023-07-24T01:37:13;6.18;;;5.25;;
9334;SDS011;4706;41.844;26.082;2023-07-24T01:39:40;6.13;;;4.85;;
9334;SDS011;4706;41.844;26.082;2023-07-24T01:42:07;6.65;;;6.10;;
9334;SDS011;4706;41.844;26.082;2023-07-24T01:44:33;6.25;;;5.65;;
9334;SDS011;4706;41.844;26.082;2023-07-24T01:46:58;5.95;;;5.45;;
9334;SDS011;4706;41.844;26.082;2023-07-24T01:49:24;6.70;;;5.40;;
9334;SDS011;4706;41.844;26.082;2023-07-24T01:51:50;7.72;;;6.05;;
9334;SDS011;4706;41.844;26.082;2023-07-24T01:54:15;19.45;;;13.27;;
9334;SDS011;4706;41.844;26.082;2023-07-24T01:56:41;40.55;;;24.05;;
9334;SDS011;4706;41.844;26.082;2023-07-24T01:59:07;39.72;;;24.50;;
9334;SDS011;4706;41.844;26.082;2023-07-24T02:01:32;50.72;;;28.20;;
9334;SDS011;4706;41.844;26.082;2023-07-24T02:03:58;43.03;;;25.27;;
9334;SDS011;4706;41.844;26.082;2023-07-24T02:06:23;31.38;;;21.00;;
9334;SDS011;4706;41.844;26.082;2023-07-24T02:08:48;29.40;;;19.13;;
9334;SDS011;4706;41.844;26.082;2023-07-24T02:11:16;28.00;;;17.15;;
9334;SDS011;4706;41.844;26.082;2023-07-24T02:13:45;23.08;;;15.57;;
9334;SDS011;4706;41.844;26.082;2023-07-24T02:16:14;22.75;;;15.27;;
9334;SDS011;4706;41.844;26.082;2023-07-24T02:18:41;22.45;;;14.68;;
9334;SDS011;4706;41.844;26.082;2023-07-24T02:21:08;26.17;;;15.57;;
9334;SDS011;4706;41.844;26.082;2023-07-24T02:23:34;24.58;;;16.27;;
9334;SDS011;4706;41.844;26.082;2023-07-24T02:25:59;25.90;;;15.60;;
9334;SDS011;4706;41.844;26.082;2023-07-24T02:28:25;24.65;;;15.32;;
9334;SDS011;4706;41.844;26.082;2023-07-24T02:30:51;22.35;;;13.93;;
9334;SDS011;4706;41.844;26.082;2023-07-24T02:33:17;21.38;;;12.65;;
9334;SDS011;4706;41.844;26.082;2023-07-24T02:35:42;12.60;;;9.63;;
9334;SDS011;4706;41.844;26.082;2023-07-24T02:38:08;10.65;;;7.72;;
9334;SDS011;4706;41.844;26.082;2023-07-24T02:40:35;10.63;;;6.35;;
9334;SDS011;4706;41.844;26.082;2023-07-24T02:43:01;6.90;;;5.82;;
9334;SDS011;4706;41.844;26.082;2023-07-24T02:45:26;7.07;;;6.00;;
9334;SDS011;4706;41.844;26.082;2023-07-24T02:47:52;11.55;;;6.25;;
9334;SDS011;4706;41.844;26.082;2023-07-24T02:50:17;6.72;;;5.97;;
9334;SDS011;4706;41.844;26.082;2023-07-24T02:52:43;9.20;;;5.78;;
9334;SDS011;4706;41.844;26.082;2023-07-24T02:55:08;5.97;;;5.38;;
9334;SDS011;4706;41.844;26.082;2023-07-24T02:57:34;7.63;;;5.40;;
9334;SDS011;4706;41.844;26.082;2023-07-24T02:59:59;7.22;;;5.95;;
9334;SDS011;4706;41.844;26.082;2023-07-24T03:02:24;7.88;;;5.47;;
9334;SDS011;4706;41.844;26.082;2023-07-24T03:04:50;9.35;;;6.57;;
9334;SDS011;4706;41.844;26.082;2023-07-24T03:07:15;8.10;;;6.65;;
9334;SDS011;4706;41.844;26.082;2023-07-24T03:09:41;8.15;;;6.47;;
9334;SDS011;4706;41.844;26.082;2023-07-24T03:12:06;6.70;;;5.60;;
9334;SDS011;4706;41.844;26.082;2023-07-24T03:14:32;9.18;;;5.63;;
9334;SDS011;4706;41.844;26.082;2023-07-24T03:16:57;8.95;;;5.40;;
9334;SDS011;4706;41.844;26.082;2023-07-24T03:19:23;9.43;;;5.80;;
9334;SDS011;4706;41.844;26.082;2023-07-24T03:21:48;7.80;;;6.07;;
9334;SDS011;4706;41.844;26.082;2023-07-24T03:24:14;9.13;;;5.82;;
9334;SDS011;4706;41.844;26.082;2023-07-24T03:26:39;7.55;;;6.00;;
9334;SDS011;4706;41.844;26.082;2023-07-24T03:29:05;11.88;;;6.18;;
9334;SDS011;4706;41.844;26.082;2023-07-24T03:31:30;8.18;;;6.70;;
9334;SDS011;4706;41.844;26.082;2023-07-24T03:33:56;8.40;;;6.15;;
9334;SDS011;4706;41.844;26.082;2023-07-24T03:36:21;6.93;;;5.80;;
9334;SDS011;4706;41.844;26.082;2023-07-24T03:38:47;7.07;;;6.15;;
9334;SDS011;4706;41.844;26.082;2023-07-24T03:41:12;11.38;;;6.90;;
9334;SDS011;4706;41.844;26.082;2023-07-24T03:43:38;11.23;;;7.38;;
9334;SDS011;4706;41.844;26.082;2023-07-24T03:46:03;14.20;;;7.13;;
9334;SDS011;4706;41.844;26.082;2023-07-24T03:48:29;12.50;;;7.13;;
9334;SDS011;4706;41.844;26.082;2023-07-24T03:50:58;9.25;;;7.20;;
9334;SDS011;4706;41.844;26.082;2023-07-24T03:53:27;9.77;;;7.22;;
9334;SDS011;4706;41.844;26.082;2023-07-24T03:55:53;12.30;;;7.28;;
9334;SDS011;4706;41.844;26.082;2023-07-24T03:58:19;12.70;;;7.10;;
9334;SDS011;4706;41.844;26.082;2023-07-24T04:00:45;10.68;;;7.60;;
9334;SDS011;4706;41.844;26.082;2023-07-24T04:03:11;9.55;;;7.35;;
9334;SDS011;4706;41.844;26.082;2023-07-24T04:05:36;10.20;;;7.40;;
9334;SDS011;4706;41.844;26.082;2023-07-24T04:08:02;9.10;;;7.32;;
9334;SDS011;4706;41.844;26.082;2023-07-24T04:10:28;11.35;;;8.13;;
9334;SDS011;4706;41.844;26.082;2023-07-24T04:12:54;21.05;;;12.30;;
9334;SDS011;4706;41.844;26.082;2023-07-24T04:15:20;22.83;;;15.35;;
9334;SDS011;4706;41.844;26.082;2023-07-24T04:17:45;22.70;;;16.17;;
9334;SDS011;4706;41.844;26.082;2023-07-24T04:20:11;24.50;;;14.77;;
9334;SDS011;4706;41.844;26.082;2023-07-24T04:22:36;23.77;;;14.63;;
9334;SDS011;4706;41.844;26.082;2023-07-24T04:25:02;27.75;;;17.23;;
9334;SDS011;4706;41.844;26.082;2023-07-24T04:27:28;30.00;;;18.98;;
9334;SDS011;4706;41.844;26.082;2023-07-24T04:29:54;35.33;;;20.02;;
9334;SDS011;4706;41.844;26.082;2023-07-24T04:32:19;31.05;;;19.48;;
9334;SDS011;4706;41.844;26.082;2023-07-24T04:34:45;29.23;;;20.15;;
9334;SDS011;4706;41.844;26.082;2023-07-24T04:37:10;27.23;;;18.50;;
9334;SDS011;4706;41.844;26.082;2023-07-24T04:39:38;25.63;;;16.23;;
9334;SDS011;4706;41.844;26.082;2023-07-24T04:42:04;26.80;;;17.60;;
9334;SDS011;4706;41.844;26.082;2023-07-24T04:44:29;25.20;;;16.20;;
9334;SDS011;4706;41.844;26.082;2023-07-24T04:46:55;23.55;;;14.35;;
9334;SDS011;4706;41.844;26.082;2023-07-24T04:49:20;21.42;;;14.77;;
9334;SDS011;4706;41.844;26.082;2023-07-24T04:51:46;25.65;;;15.65;;
9334;SDS011;4706;41.844;26.082;2023-07-24T04:54:12;25.95;;;15.68;;
9334;SDS011;4706;41.844;26.082;2023-07-24T04:56:37;23.02;;;15.88;;
9334;SDS011;4706;41.844;26.082;2023-07-24T04:59:03;23.52;;;16.63;;
9334;SDS011;4706;41.844;26.082;2023-07-24T05:01:28;22.48;;;16.27;;
9334;SDS011;4706;41.844;26.082;2023-07-24T05:03:54;22.65;;;16.08;;
9334;SDS011;4706;41.844;26.082;2023-07-24T05:06:19;19.83;;;15.00;;
9334;SDS011;4706;41.844;26.082;2023-07-24T05:08:45;15.85;;;13.70;;
9334;SDS011;4706;41.844;26.082;2023-07-24T05:11:10;19.45;;;15.65;;
9334;SDS011;4706;41.844;26.082;2023-07-24T05:13:36;20.42;;;15.82;;
9334;SDS011;4706;41.844;26.082;2023-07-24T05:16:01;71.07;;;20.38;;
9334;SDS011;4706;41.844;26.082;2023-07-24T05:18:27;21.42;;;16.67;;
9334;SDS011;4706;41.844;26.082;2023-07-24T05:20:53;19.77;;;16.50;;
9334;SDS011;4706;41.844;26.082;2023-07-24T05:23:18;22.95;;;18.00;;
9334;SDS011;4706;41.844;26.082;2023-07-24T05:25:44;22.75;;;18.08;;
9334;SDS011;4706;41.844;26.082;2023-07-24T05:28:09;20.13;;;16.40;;
9334;SDS011;4706;41.844;26.082;2023-07-24T05:30:35;19.02;;;16.00;;
9334;SDS011;4706;41.844;26.082;2023-07-24T05:33:01;17.70;;;15.25;;
9334;SDS011;4706;41.844;26.082;2023-07-24T05:35:26;19.08;;;15.07;;
9334;SDS011;4706;41.844;26.082;2023-07-24T05:37:52;20.75;;;15.27;;
9334;SDS011;4706;41.844;26.082;2023-07-24T05:40:18;21.33;;;15.15;;
9334;SDS011;4706;41.844;26.082;2023-07-24T05:42:43;22.40;;;17.30;;
9334;SDS011;4706;41.844;26.082;2023-07-24T05:45:09;18.73;;;14.95;;
9334;SDS011;4706;41.844;26.082;2023-07-24T05:47:36;18.85;;;15.05;;
9334;SDS011;4706;41.844;26.082;2023-07-24T05:50:02;20.60;;;15.48;;
9334;SDS011;4706;41.844;26.082;2023-07-24T05:52:28;19.33;;;15.00;;
9334;SDS011;4706;41.844;26.082;2023-07-24T05:54:54;19.50;;;16.23;;
9334;SDS011;4706;41.844;26.082;2023-07-24T05:57:19;17.23;;;15.43;;
9334;SDS011;4706;41.844;26.082;2023-07-24T05:59:45;17.98;;;15.15;;
9334;SDS011;4706;41.844;26.082;2023-07-24T06:02:11;16.05;;;14.18;;
9334;SDS011;4706;41.844;26.082;2023-07-24T06:04:36;21.63;;;17.13;;
9334;SDS011;4706;41.844;26.082;2023-07-24T06:07:02;21.33;;;16.40;;
9334;SDS011;4706;41.844;26.082;2023-07-24T06:09:27;19.30;;;17.25;;
9334;SDS011;4706;41.844;26.082;2023-07-24T06:11:53;23.95;;;15.75;;
9334;SDS011;4706;41.844;26.082;2023-07-24T06:14:18;17.17;;;14.45;;
9334;SDS011;4706;41.844;26.082;2023-07-24T06:16:44;14.60;;;13.13;;
9334;SDS011;4706;41.844;26.082;2023-07-24T06:19:09;19.23;;;14.82;;
9334;SDS011;4706;41.844;26.082;2023-07-24T06:21:35;14.18;;;12.63;;
9334;SDS011;4706;41.844;26.082;2023-07-24T06:24:00;14.68;;;13.10;;
9334;SDS011;4706;41.844;26.082;2023-07-24T06:26:26;12.80;;;11.68;;
9334;SDS011;4706;41.844;26.082;2023-07-24T06:28:51;13.40;;;12.05;;
9334;SDS011;4706;41.844;26.082;2023-07-24T06:31:17;14.88;;;11.95;;
9334;SDS011;4706;41.844;26.082;2023-07-24T06:33:42;13.55;;;12.18;;
9334;SDS011;4706;41.844;26.082;2023-07-24T06:36:11;12.57;;;11.27;;
9334;SDS011;4706;41.844;26.082;2023-07-24T06:38:37;12.38;;;11.15;;
9334;SDS011;4706;41.844;26.082;2023-07-24T06:41:02;15.40;;;11.27;;
9334;SDS011;4706;41.844;26.082;2023-07-24T06:43:28;10.75;;;9.80;;
9334;SDS011;4706;41.844;26.082;2023-07-24T06:45:54;12.55;;;11.32;;
9334;SDS011;4706;41.844;26.082;2023-07-24T06:48:19;12.95;;;11.60;;
9334;SDS011;4706;41.844;26.082;2023-07-24T06:50:45;11.02;;;9.75;;
9334;SDS011;4706;41.844;26.082;2023-07-24T06:53:10;13.25;;;10.27;;
9334;SDS011;4706;41.844;26.082;2023-07-24T06:55:35;20.35;;;12.68;;
9334;SDS011;4706;41.844;26.082;2023-07-24T06:58:01;15.77;;;11.27;;
9334;SDS011;4706;41.844;26.082;2023-07-24T07:00:26;33.15;;;13.27;;
9334;SDS011;4706;41.844;26.082;2023-07-24T07:02:52;61.38;;;17.45;;
9334;SDS011;4706;41.844;26.082;2023-07-24T07:05:17;15.80;;;11.95;;
9334;SDS011;4706;41.844;26.082;2023-07-24T07:07:43;17.27;;;10.20;;
9334;SDS011;4706;41.844;26.082;2023-07-24T07:10:08;10.82;;;9.52;;
9334;SDS011;4706;41.844;26.082;2023-07-24T07:12:34;9.68;;;8.70;;
9334;SDS011;4706;41.844;26.082;2023-07-24T07:14:59;10.05;;;8.95;;
9334;SDS011;4706;41.844;26.082;2023-07-24T07:17:25;10.35;;;9.30;;
9334;SDS011;4706;41.844;26.082;2023-07-24T07:19:50;23.77;;;10.57;;
9334;SDS011;4706;41.844;26.082;2023-07-24T07:22:16;12.55;;;9.27;;
9334;SDS011;4706;41.844;26.082;2023-07-24T07:24:41;10.40;;;8.80;;
9334;SDS011;4706;41.844;26.082;2023-07-24T07:27:08;11.60;;;8.48;;
9334;SDS011;4706;41.844;26.082;2023-07-24T07:29:34;10.30;;;8.80;;
9334;SDS011;4706;41.844;26.082;2023-07-24T07:31:59;10.02;;;9.00;;
9334;SDS011;4706;41.844;26.082;2023-07-24T07:34:25;9.43;;;8.50;;
9334;SDS011;4706;41.844;26.082;2023-07-24T07:36:51;11.27;;;8.73;;
9334;SDS011;4706;41.844;26.082;2023-07-24T07:39:16;9.25;;;8.27;;
9334;SDS011;4706;41.844;26.082;2023-07-24T07:41:42;10.10;;;8.68;;
9334;SDS011;4706;41.844;26.082;2023-07-24T07:44:08;11.40;;;8.80;;
9334;SDS011;4706;41.844;26.082;2023-07-24T07:46:33;12.65;;;9.32;;
9334;SDS011;4706;41.844;26.082;2023-07-24T07:48:59;10.63;;;9.30;;
9334;SDS011;4706;41.844;26.082;2023-07-24T07:51:24;8.85;;;8.10;;
9334;SDS011;4706;41.844;26.082;2023-07-24T07:53:51;9.65;;;7.93;;
9334;SDS011;4706;41.844;26.082;2023-07-24T07:56:17;7.65;;;6.93;;
9334;SDS011;4706;41.844;26.082;2023-07-24T07:58:42;7.95;;;6.95;;
9334;SDS011;4706;41.844;26.082;2023-07-24T08:01:08;7.70;;;6.93;;
9334;SDS011;4706;41.844;26.082;2023-07-24T08:03:33;7.82;;;7.03;;
9334;SDS011;4706;41.844;26.082;2023-07-24T08:05:59;7.60;;;6.90;;
9334;SDS011;4706;41.844;26.082;2023-07-24T08:08:25;7.93;;;7.20;;
9334;SDS011;4706;41.844;26.082;2023-07-24T08:10:51;8.93;;;7.10;;
9334;SDS011;4706;41.844;26.082;2023-07-24T08:13:16;6.97;;;6.25;;
9334;SDS011;4706;41.844;26.082;2023-07-24T08:15:42;6.95;;;6.22;;
9334;SDS011;4706;41.844;26.082;2023-07-24T08:18:07;8.25;;;7.50;;
9334;SDS011;4706;41.844;26.082;2023-07-24T08:20:35;6.55;;;5.65;;
9334;SDS011;4706;41.844;26.082;2023-07-24T08:23:01;15.43;;;6.63;;
9334;SDS011;4706;41.844;26.082;2023-07-24T08:25:27;7.70;;;6.53;;
9334;SDS011;4706;41.844;26.082;2023-07-24T08:27:52;7.78;;;6.40;;
9334;SDS011;4706;41.844;26.082;2023-07-24T08:30:18;6.85;;;6.25;;
9334;SDS011;4706;41.844;26.082;2023-07-24T08:32:43;7.93;;;6.00;;
9334;SDS011;4706;41.844;26.082;2023-07-24T08:35:09;6.88;;;6.03;;
9334;SDS011;4706;41.844;26.082;2023-07-24T08:37:35;6.97;;;6.28;;
9334;SDS011;4706;41.844;26.082;2023-07-24T08:40:00;8.02;;;6.15;;
9334;SDS011;4706;41.844;26.082;2023-07-24T08:42:26;10.02;;;6.47;;
9334;SDS011;4706;41.844;26.082;2023-07-24T08:44:53;7.10;;;6.10;;
9334;SDS011;4706;41.844;26.082;2023-07-24T08:47:19;8.30;;;7.30;;
9334;SDS011;4706;41.844;26.082;2023-07-24T08:49:45;6.30;;;5.63;;
9334;SDS011;4706;41.844;26.082;2023-07-24T08:52:12;5.60;;;5.20;;
9334;SDS011;4706;41.844;26.082;2023-07-24T08:54:39;13.10;;;6.00;;
9334;SDS011;4706;41.844;26.082;2023-07-24T08:57:06;5.90;;;5.40;;
9334;SDS011;4706;41.844;26.082;2023-07-24T08:59:32;5.88;;;5.38;;
9334;SDS011;4706;41.844;26.082;2023-07-24T09:01:58;5.45;;;5.05;;
9334;SDS011;4706;41.844;26.082;2023-07-24T09:04:24;5.55;;;5.05;;
9334;SDS011;4706;41.844;26.082;2023-07-24T09:06:50;6.38;;;5.78;;
9334;SDS011;4706;41.844;26.082;2023-07-24T09:09:16;6.10;;;5.55;;
9334;SDS011;4706;41.844;26.082;2023-07-24T09:11:46;5.90;;;5.32;;
9334;SDS011;4706;41.844;26.082;2023-07-24T09:14:19;6.05;;;5.43;;
9334;SDS011;4706;41.844;26.082;2023-07-24T09:17:04;5.22;;;4.82;;
9334;SDS011;4706;41.844;26.082;2023-07-24T09:19:30;8.82;;;8.13;;
9334;SDS011;4706;41.844;26.082;2023-07-24T09:21:56;6.13;;;5.55;;
9334;SDS011;4706;41.844;26.082;2023-07-24T09:24:36;6.10;;;5.70;;
9334;SDS011;4706;41.844;26.082;2023-07-24T09:27:04;5.97;;;5.28;;
9334;SDS011;4706;41.844;26.082;2023-07-24T09:29:31;5.95;;;5.35;;
9334;SDS011;4706;41.844;26.082;2023-07-24T09:31:58;5.22;;;4.82;;
9334;SDS011;4706;41.844;26.082;2023-07-24T09:34:24;9.32;;;5.82;;
9334;SDS011;4706;41.844;26.082;2023-07-24T09:36:51;7.43;;;5.45;;
9334;SDS011;4706;41.844;26.082;2023-07-24T09:39:26;5.70;;;5.03;;
9334;SDS011;4706;41.844;26.082;2023-07-24T09:41:52;5.50;;;5.00;;
9334;SDS011;4706;41.844;26.082;2023-07-24T09:44:18;6.07;;;5.20;;
9334;SDS011;4706;41.844;26.082;2023-07-24T09:46:44;6.13;;;5.47;;
9334;SDS011;4706;41.844;26.082;2023-07-24T09:49:09;6.10;;;5.10;;
9334;SDS011;4706;41.844;26.082;2023-07-24T09:51:35;6.45;;;5.80;;
9334;SDS011;4706;41.844;26.082;2023-07-24T09:54:12;6.90;;;5.32;;
9334;SDS011;4706;41.844;26.082;2023-07-24T09:56:40;5.88;;;5.28;;
9334;SDS011;4706;41.844;26.082;2023-07-24T09:59:07;9.27;;;7.47;;
9334;SDS011;4706;41.844;26.082;2023-07-24T10:01:34;6.13;;;5.43;;
9334;SDS011;4706;41.844;26.082;2023-07-24T10:04:01;6.30;;;5.38;;
9334;SDS011;4706;41.844;26.082;2023-07-24T10:06:29;7.20;;;5.90;;
9334;SDS011;4706;41.844;26.082;2023-07-24T10:08:55;5.93;;;5.20;;
9334;SDS011;4706;41.844;26.082;2023-07-24T10:11:21;6.03;;;5.43;;
9334;SDS011;4706;41.844;26.082;2023-07-24T10:13:47;5.97;;;5.40;;
9334;SDS011;4706;41.844;26.082;2023-07-24T10:16:14;6.47;;;5.68;;
9334;SDS011;4706;41.844;26.082;2023-07-24T10:18:43;6.18;;;5.57;;
9334;SDS011;4706;41.844;26.082;2023-07-24T10:21:10;5.70;;;5.30;;
9334;SDS011;4706;41.844;26.082;2023-07-24T10:23:37;5.70;;;5.20;;
9334;SDS011;4706;41.844;26.082;2023-07-24T10:26:07;7.18;;;6.57;;
9334;SDS011;4706;41.844;26.082;2023-07-24T10:28:35;6.22;;;5.45;;
9334;SDS011;4706;41.844;26.082;2023-07-24T10:31:06;5.25;;;4.70;;
9334;SDS011;4706;41.844;26.082;2023-07-24T10:33:36;5.95;;;5.38;;
9334;SDS011;4706;41.844;26.082;2023-07-24T10:36:10;5.82;;;5.28;;
9334;SDS011;4706;41.844;26.082;2023-07-24T10:38:39;5.72;;;5.25;;
9334;SDS011;4706;41.844;26.082;2023-07-24T10:41:06;7.40;;;6.05;;
9334;SDS011;4706;41.844;26.082;2023-07-24T10:43:42;5.68;;;4.82;;
9334;SDS011;4706;41.844;26.082;2023-07-24T10:46:17;7.05;;;6.32;;
9334;SDS011;4706;41.844;26.082;2023-07-24T10:48:45;6.18;;;5.28;;
9334;SDS011;4706;41.844;26.082;2023-07-24T10:51:12;6.18;;;5.57;;
9334;SDS011;4706;41.844;26.082;2023-07-24T10:53:45;6.18;;;5.68;;
9334;SDS011;4706;41.844;26.082;2023-07-24T10:56:12;5.85;;;5.35;;
9334;SDS011;4706;41.844;26.082;2023-07-24T10:58:38;6.50;;;5.50;;
9334;SDS011;4706;41.844;26.082;2023-07-24T11:01:04;5.93;;;5.43;;
9334;SDS011;4706;41.844;26.082;2023-07-24T11:03:31;5.88;;;5.38;;
9334;SDS011;4706;41.844;26.082;2023-07-24T11:05:57;6.05;;;5.18;;
9334;SDS011;4706;41.844;26.082;2023-07-24T11:08:24;6.32;;;5.30;;
9334;SDS011;4706;41.844;26.082;2023-07-24T11:10:56;7.20;;;5.45;;
9334;SDS011;4706;41.844;26.082;2023-07-24T11:13:24;5.55;;;5.15;;
9334;SDS011;4706;41.844;26.082;2023-07-24T11:15:51;6.10;;;5.18;;
9334;SDS011;4706;41.844;26.082;2023-07-24T11:18:18;5.55;;;5.15;;
9334;SDS011;4706;41.844;26.082;2023-07-24T11:21:06;6.13;;;5.53;;
9334;SDS011;4706;41.844;26.082;2023-07-24T11:23:33;7.80;;;5.50;;
9334;SDS011;4706;41.844;26.082;2023-07-24T11:26:00;5.43;;;4.93;;
9334;SDS011;4706;41.844;26.082;2023-07-24T11:28:26;6.03;;;5.43;;
9334;SDS011;4706;41.844;26.082;2023-07-24T11:30:53;6.25;;;5.65;;
9334;SDS011;4706;41.844;26.082;2023-07-24T11:33:19;6.43;;;5.82;;
9334;SDS011;4706;41.844;26.082;2023-07-24T11:35:45;7.30;;;5.97;;
9334;SDS011;4706;41.844;26.082;2023-07-24T11:38:11;7.35;;;6.20;;
9334;SDS011;4706;41.844;26.082;2023-07-24T11:40:44;6.80;;;6.10;;
9334;SDS011;4706;41.844;26.082;2023-07-24T11:43:17;6.90;;;6.30;;
9334;SDS011;4706;41.844;26.082;2023-07-24T11:45:44;7.60;;;6.82;;
9334;SDS011;4706;41.844;26.082;2023-07-24T11:48:10;8.13;;;7.43;;
9334;SDS011;4706;41.844;26.082;2023-07-24T11:50:57;8.02;;;7.32;;
9334;SDS011;4706;41.844;26.082;2023-07-24T11:53:29;10.00;;;8.95;;
9334;SDS011;4706;41.844;26.082;2023-07-24T11:56:16;7.55;;;6.40;;
9334;SDS011;4706;41.844;26.082;2023-07-24T11:58:44;7.88;;;7.10;;
9334;SDS011;4706;41.844;26.082;2023-07-24T12:01:14;8.38;;;7.40;;
9334;SDS011;4706;41.844;26.082;2023-07-24T12:03:41;8.70;;;7.90;;
9334;SDS011;4706;41.844;26.082;2023-07-24T12:06:30;7.45;;;6.85;;
9334;SDS011;4706;41.844;26.082;2023-07-24T12:09:16;8.88;;;7.97;;
9334;SDS011;4706;41.844;26.082;2023-07-24T12:12:02;9.07;;;8.25;;
9334;SDS011;4706;41.844;26.082;2023-07-24T12:14:50;8.25;;;7.45;;
9334;SDS011;4706;41.844;26.082;2023-07-24T12:17:35;8.25;;;7.55;;
9334;SDS011;4706;41.844;26.082;2023-07-24T12:20:21;8.57;;;7.57;;
9334;SDS011;4706;41.844;26.082;2023-07-24T12:23:07;8.27;;;7.55;;
9334;SDS011;4706;41.844;26.082;2023-07-24T12:25:52;7.88;;;7.18;;
9334;SDS011;4706;41.844;26.082;2023-07-24T12:28:24;9.32;;;8.43;;
9334;SDS011;4706;41.844;26.082;2023-07-24T12:31:09;8.93;;;8.13;;
9334;SDS011;4706;41.844;26.082;2023-07-24T12:33:54;8.88;;;8.07;;
9334;SDS011;4706;41.844;26.082;2023-07-24T12:36:40;9.15;;;8.35;;
9334;SDS011;4706;41.844;26.082;2023-07-24T12:39:25;10.40;;;9.40;;
9334;SDS011;4706;41.844;26.082;2023-07-24T12:42:11;9.75;;;8.75;;
9334;SDS011;4706;41.844;26.082;2023-07-24T12:44:56;9.25;;;8.30;;
9334;SDS011;4706;41.844;26.082;2023-07-24T12:47:32;8.55;;;7.75;;
9334;SDS011;4706;41.844;26.082;2023-07-24T12:50:18;8.85;;;8.05;;
9334;SDS011;4706;41.844;26.082;2023-07-24T12:53:03;8.68;;;7.97;;
9334;SDS011;4706;41.844;26.082;2023-07-24T12:55:48;8.10;;;7.38;;
9334;SDS011;4706;41.844;26.082;2023-07-24T12:58:34;9.05;;;8.25;;
9334;SDS011;4706;41.844;26.082;2023-07-24T13:01:19;9.10;;;8.15;;
9334;SDS011;4706;41.844;26.082;2023-07-24T13:04:05;8.52;;;7.72;;
9334;SDS011;4706;41.844;26.082;2023-07-24T13:06:50;8.93;;;8.13;;
9334;SDS011;4706;41.844;26.082;2023-07-24T13:09:36;9.00;;;8.20;;
9334;SDS011;4706;41.844;26.082;2023-07-24T13:12:21;9.30;;;7.88;;
9334;SDS011;4706;41.844;26.082;2023-07-24T13:15:07;8.90;;;8.10;;
9334;SDS011;4706;41.844;26.082;2023-07-24T13:17:52;9.00;;;8.20;;
9334;SDS011;4706;41.844;26.082;2023-07-24T13:20:37;8.45;;;7.55;;
9334;SDS011;4706;41.844;26.082;2023-07-24T13:23:23;8.50;;;7.75;;
9334;SDS011;4706;41.844;26.082;2023-07-24T13:26:08;10.05;;;8.45;;
9334;SDS011;4706;41.844;26.082;2023-07-24T13:28:55;8.90;;;8.07;;
9334;SDS011;4706;41.844;26.082;2023-07-24T13:31:36;9.15;;;8.05;;
9334;SDS011;4706;41.844;26.082;2023-07-24T13:34:23;9.82;;;8.95;;
9334;SDS011;4706;41.844;26.082;2023-07-24T13:37:09;10.80;;;8.40;;
9334;SDS011;4706;41.844;26.082;2023-07-24T13:39:54;8.80;;;7.90;;
9334;SDS011;4706;41.844;26.082;2023-07-24T13:42:40;9.88;;;8.80;;
9334;SDS011;4706;41.844;26.082;2023-07-24T13:45:25;10.00;;;8.95;;
9334;SDS011;4706;41.844;26.082;2023-07-24T13:47:52;9.05;;;8.15;;
9334;SDS011;4706;41.844;26.082;2023-07-24T13:50:38;8.85;;;8.13;;
9334;SDS011;4706;41.844;26.082;2023-07-24T13:53:23;8.15;;;7.38;;
9334;SDS011;4706;41.844;26.082;2023-07-24T13:56:09;10.68;;;8.77;;
9334;SDS011;4706;41.844;26.082;2023-07-24T13:58:55;9.57;;;8.55;;
9334;SDS011;4706;41.844;26.082;2023-07-24T14:01:40;9.85;;;8.75;;
9334;SDS011;4706;41.844;26.082;2023-07-24T14:04:26;9.38;;;8.48;;
9334;SDS011;4706;41.844;26.082;2023-07-24T14:06:52;10.23;;;9.23;;
9334;SDS011;4706;41.844;26.082;2023-07-24T14:09:38;12.10;;;8.00;;
9334;SDS011;4706;41.844;26.082;2023-07-24T14:12:23;8.60;;;7.80;;
9334;SDS011;4706;41.844;26.082;2023-07-24T14:15:09;8.90;;;8.05;;
9334;SDS011;4706;41.844;26.082;2023-07-24T14:17:54;8.63;;;7.85;;
9334;SDS011;4706;41.844;26.082;2023-07-24T14:20:40;9.43;;;8.43;;
9334;SDS011;4706;41.844;26.082;2023-07-24T14:23:25;9.82;;;8.88;;
9334;SDS011;4706;41.844;26.082;2023-07-24T14:26:11;9.75;;;8.82;;
9334;SDS011;4706;41.844;26.082;2023-07-24T14:28:56;8.98;;;8.15;;
9334;SDS011;4706;41.844;26.082;2023-07-24T14:31:42;8.88;;;7.97;;
9334;SDS011;4706;41.844;26.082;2023-07-24T14:34:21;9.60;;;8.70;;
9334;SDS011;4706;41.844;26.082;2023-07-24T14:37:07;9.65;;;8.60;;
9334;SDS011;4706;41.844;26.082;2023-07-24T14:39:37;9.32;;;8.43;;
9334;SDS011;4706;41.844;26.082;2023-07-24T14:42:10;8.77;;;7.97;;
9334;SDS011;4706;41.844;26.082;2023-07-24T14:44:49;8.75;;;7.95;;
9334;SDS011;4706;41.844;26.082;2023-07-24T14:47:35;8.90;;;8.10;;
9334;SDS011;4706;41.844;26.082;2023-07-24T14:50:20;9.30;;;8.40;;
9334;SDS011;4706;41.844;26.082;2023-07-24T14:53:06;8.88;;;8.07;;
9334;SDS011;4706;41.844;26.082;2023-07-24T14:55:51;8.68;;;7.78;;
9334;SDS011;4706;41.844;26.082;2023-07-24T14:58:36;9.65;;;8.70;;
9334;SDS011;4706;41.844;26.082;2023-07-24T15:01:22;9.30;;;8.40;;
9334;SDS011;4706;41.844;26.082;2023-07-24T15:04:07;9.10;;;8.30;;
9334;SDS011;4706;41.844;26.082;2023-07-24T15:06:53;9.80;;;8.30;;
9334;SDS011;4706;41.844;26.082;2023-07-24T15:09:19;9.00;;;8.10;;
9334;SDS011;4706;41.844;26.082;2023-07-24T15:11:58;9.07;;;8.20;;